Time;durP1;ratioP1;P1;durP2;ratioP2;P2;SDS_P1;SDS_P2;PMS_P1;PMS_P2;Temp;Humidity;BMP_temperature;BMP_pressure;BME280_temperature;BME280_humidity;BME280_pressure;Samples;Min_cycle;Max_cycle;Signal;HPM_P1;HPM_P2
2023/07/21 00:01:22;;;;;;;8.98;5.28;;;;;;;27.43;64.58;98517.25;5015440;28;20214;-87
2023/07/21 00:03:48;;;;;;;12.23;6.13;;;;;;;27.37;65.02;98518.00;4998343;28;20571;-87
2023/07/21 00:06:17;;;;;;;12.07;5.78;;;;;;;27.32;65.46;98509.72;5015554;28;20190;-87
2023/07/21 00:08:43;;;;;;;10.50;5.80;;;;;;;27.30;65.70;98514.47;5015502;28;20206;-87
2023/07/21 00:11:09;;;;;;;11.43;5.50;;;;;;;27.29;65.04;98514.66;5016031;28;20171;-87
2023/07/21 00:13:35;;;;;;;9.30;5.20;;;;;;;27.22;65.52;98509.25;5015356;28;20206;-87
2023/07/21 00:16:05;;;;;;;9.18;5.13;;;;;;;27.17;66.19;98511.72;5014662;28;20540;-87
2023/07/21 00:18:32;;;;;;;11.63;5.55;;;;;;;27.13;66.50;98512.31;5015555;28;20193;-87
2023/07/21 00:20:57;;;;;;;12.30;5.82;;;;;;;27.07;66.50;98511.25;4997941;28;20256;-87
2023/07/21 00:23:24;;;;;;;8.00;5.25;;;;;;;27.07;65.93;98511.25;5015512;28;20553;-87
2023/07/21 00:25:51;;;;;;;10.73;5.50;;;;;;;27.06;65.58;98514.16;5015231;28;20617;-87
2023/07/21 00:28:17;;;;;;;8.95;5.20;;;;;;;26.99;66.11;98510.63;5014174;28;20237;-87
2023/07/21 00:30:46;;;;;;;14.50;6.28;;;;;;;26.99;65.72;98508.72;5015022;28;20297;-87
2023/07/21 00:33:13;;;;;;;10.18;5.18;;;;;;;26.99;65.94;98510.63;5014909;28;20193;-87
2023/07/21 00:35:39;;;;;;;9.23;5.47;;;;;;;26.98;66.29;98511.63;5015008;28;20613;-87
2023/07/21 00:38:04;;;;;;;11.25;5.10;;;;;;;27.10;65.80;98510.00;5014917;28;20179;-87
2023/07/21 00:40:33;;;;;;;10.30;5.82;;;;;;;27.21;65.14;98514.81;4997800;28;20175;-87
2023/07/21 00:42:58;;;;;;;8.85;5.00;;;;;;;27.33;64.56;98516.72;5015153;28;20178;-87
2023/07/21 00:45:23;;;;;;;8.60;5.05;;;;;;;27.37;63.60;98518.00;5014846;28;20171;-87
2023/07/21 00:47:50;;;;;;;9.80;5.55;;;;;;;27.39;62.91;98526.72;5014757;28;20167;-87
2023/07/21 00:50:16;;;;;;;11.02;5.45;;;;;;;27.47;62.70;98531.09;5014970;28;20187;-87
2023/07/21 00:52:42;;;;;;;12.20;6.15;;;;;;;27.47;62.68;98528.41;5014680;28;20179;-87
2023/07/21 00:55:09;;;;;;;12.25;6.35;;;;;;;27.42;62.89;98529.03;5014456;28;20194;-87
2023/07/21 00:57:35;;;;;;;9.98;5.78;;;;;;;27.36;63.08;98532.47;5013907;28;20553;-87
2023/07/21 01:00:04;;;;;;;12.45;5.80;;;;;;;27.38;62.53;98527.72;5014851;28;20617;-87
2023/07/21 01:02:29;;;;;;;10.07;6.40;;;;;;;27.37;62.65;98530.63;5013357;28;20183;-87
2023/07/21 01:04:59;;;;;;;10.68;6.50;;;;;;;27.40;62.04;98530.25;5014442;28;20182;-87
2023/07/21 01:07:25;;;;;;;10.50;5.78;;;;;;;27.36;62.22;98521.72;5014473;28;20226;-86
2023/07/21 01:09:52;;;;;;;11.93;6.68;;;;;;;27.29;62.91;98518.19;5014223;28;20278;-87
2023/07/21 01:12:17;;;;;;;8.68;5.60;;;;;;;27.27;62.94;98516.72;4997110;28;20559;-87
2023/07/21 01:14:42;;;;;;;11.02;6.15;;;;;;;27.24;63.28;98519.81;5013741;28;20175;-87
2023/07/21 01:17:10;;;;;;;9.07;5.70;;;;;;;27.19;62.44;98516.91;5014242;28;20175;-87
2023/07/21 01:19:37;;;;;;;128.43;22.17;;;;;;;27.08;62.96;98523.69;5014404;28;20190;-87
2023/07/21 01:22:12;;;;;;;11.52;6.10;;;;;;;27.07;63.53;98524.69;5014159;28;20175;-87
2023/07/21 01:25:07;;;;;;;11.18;5.20;;;;;;;27.03;63.82;98523.47;5014468;28;20167;-87
2023/07/21 01:27:36;;;;;;;12.18;5.05;;;;;;;26.94;64.00;98516.56;4997119;28;20661;-87
2023/07/21 01:30:05;;;;;;;10.70;5.72;;;;;;;26.92;63.88;98521.31;5013954;28;20191;-87
2023/07/21 01:32:35;;;;;;;17.27;5.40;;;;;;;26.97;63.61;98521.56;5014311;28;20171;-87
2023/07/21 01:35:02;;;;;;;20.85;7.50;;;;;;;26.95;63.35;98529.00;5013802;28;20177;-87
2023/07/21 01:37:28;;;;;;;12.00;6.03;;;;;;;26.91;63.90;98519.69;5013899;28;20202;-87
2023/07/21 01:39:54;;;;;;;169.80;117.45;;;;;;;26.87;63.90;98520.25;5013861;28;20249;-87
2023/07/21 01:42:20;;;;;;;547.38;197.38;;;;;;;26.85;63.51;98512.41;4996567;28;20199;-87
2023/07/21 01:44:47;;;;;;;11.15;5.10;;;;;;;26.86;63.50;98519.41;5013541;28;20183;-87
2023/07/21 01:47:12;;;;;;;13.45;6.28;;;;;;;26.86;63.32;98513.22;5013740;28;20198;-86
2023/07/21 01:49:38;;;;;;;17.33;6.35;;;;;;;26.81;63.49;98509.25;5013627;28;20657;-86
2023/07/21 01:52:04;;;;;;;10.27;5.82;;;;;;;26.78;63.53;98519.59;5013734;28;20171;-87
2023/07/21 01:54:43;;;;;;;11.32;6.30;;;;;;;26.74;63.60;98520.97;5013721;28;20167;-86
2023/07/21 01:57:13;;;;;;;280.23;16.23;;;;;;;26.74;63.31;98526.38;5013646;28;20160;-86
2023/07/21 01:59:43;;;;;;;1999.90;999.90;;;;;;;26.66;63.85;98523.81;5013382;28;20261;-87
2023/07/21 02:02:10;;;;;;;1999.90;999.90;;;;;;;26.58;64.49;98523.97;5013339;28;20195;-87
2023/07/21 02:04:35;;;;;;;1999.90;999.90;;;;;;;26.56;64.45;98526.03;5013513;28;20193;-87
2023/07/21 02:07:01;;;;;;;11.17;6.10;;;;;;;26.53;64.38;98529.13;5014086;28;20206;-87
2023/07/21 02:09:26;;;;;;;9.07;5.25;;;;;;;26.55;64.13;98527.91;4995758;28;20220;-87
2023/07/21 02:11:52;;;;;;;13.20;6.20;;;;;;;26.53;64.05;98534.50;4996112;28;20210;-87
2023/07/21 02:14:18;;;;;;;10.15;6.07;;;;;;;26.45;64.72;98537.31;5013412;28;20182;-87
2023/07/21 02:16:43;;;;;;;10.48;5.88;;;;;;;26.40;64.50;98537.94;5013126;28;20598;-86
2023/07/21 02:19:08;;;;;;;10.63;5.72;;;;;;;26.31;65.20;98535.59;4995981;28;20213;-86
2023/07/21 02:21:34;;;;;;;12.50;5.85;;;;;;;26.26;65.02;98530.78;5014259;28;20168;-86
2023/07/21 02:24:00;;;;;;;11.63;6.18;;;;;;;26.28;65.19;98546.72;5017504;28;20229;-87
2023/07/21 02:26:26;;;;;;;9.82;5.65;;;;;;;26.26;65.00;98551.47;5017942;28;20179;-87
2023/07/21 02:28:52;;;;;;;9.93;6.23;;;;;;;26.23;65.13;98545.44;5016784;28;20183;-86
2023/07/21 02:31:18;;;;;;;11.25;6.53;;;;;;;26.22;64.88;98554.53;5016926;28;20190;-86
2023/07/21 02:33:43;;;;;;;16.48;10.30;;;;;;;26.21;65.02;98550.16;5013034;28;20180;-86
2023/07/21 02:36:09;;;;;;;12.90;6.93;;;;;;;26.26;64.63;98557.66;5017287;28;20230;-87
2023/07/21 02:38:34;;;;;;;10.57;6.10;;;;;;;26.23;64.74;98555.38;5017486;28;20628;-87
2023/07/21 02:41:04;;;;;;;18.17;6.37;;;;;;;26.17;64.95;98561.50;5017200;28;20182;-87
2023/07/21 02:43:31;;;;;;;11.80;6.77;;;;;;;26.10;65.37;98560.59;4999861;28;20167;-86
2023/07/21 02:45:57;;;;;;;10.23;5.57;;;;;;;26.05;65.43;98558.47;5017104;28;20332;-86
2023/07/21 02:48:22;;;;;;;11.43;6.28;;;;;;;26.02;65.61;98569.59;5017023;28;20248;-86
2023/07/21 02:50:50;;;;;;;8.50;5.35;;;;;;;25.98;65.78;98572.84;5016909;28;20625;-87
2023/07/21 02:53:17;;;;;;;11.80;6.72;;;;;;;25.94;66.23;98558.97;5017497;28;20171;-86
2023/07/21 02:55:43;;;;;;;10.37;6.20;;;;;;;25.97;65.93;98566.66;5008256;28;20680;-87
2023/07/21 02:58:11;;;;;;;14.15;6.18;;;;;;;25.91;66.40;98562.06;4997312;28;20195;-86
2023/07/21 03:00:36;;;;;;;13.32;6.75;;;;;;;25.89;66.31;98565.97;4997193;28;20179;-86
2023/07/21 03:03:03;;;;;;;14.23;6.80;;;;;;;25.90;66.26;98565.75;5009322;28;20187;-86
2023/07/21 03:05:29;;;;;;;11.85;6.50;;;;;;;25.79;66.69;98571.63;5016753;28;20171;-86
2023/07/21 03:07:56;;;;;;;10.43;6.17;;;;;;;25.81;66.62;98572.28;5016558;28;20207;-87
2023/07/21 03:10:22;;;;;;;215.25;88.43;;;;;;;25.80;66.54;98570.63;4999237;28;20637;-86
2023/07/21 03:12:47;;;;;;;11.37;7.33;;;;;;;25.81;66.24;98577.66;5016631;28;20266;-87
2023/07/21 03:15:13;;;;;;;10.77;6.32;;;;;;;25.82;66.61;98582.00;5016378;28;20621;-86
2023/07/21 03:17:38;;;;;;;10.93;6.50;;;;;;;25.87;66.33;98576.03;5016514;28;20171;-86
2023/07/21 03:20:15;;;;;;;9.50;6.07;;;;;;;25.86;66.12;98575.25;5016332;28;20645;-86
2023/07/21 03:22:44;;;;;;;11.02;6.20;;;;;;;25.87;65.82;98578.72;5016139;28;20254;-86
2023/07/21 03:25:10;;;;;;;11.07;5.47;;;;;;;25.76;66.47;98584.63;5016909;28;20171;-86
2023/07/21 03:27:38;;;;;;;7.80;5.20;;;;;;;25.65;66.87;98592.13;5016663;28;20265;-86
2023/07/21 03:30:04;;;;;;;10.73;6.20;;;;;;;25.65;66.94;98594.81;5016216;28;20205;-87
2023/07/21 03:32:30;;;;;;;12.47;5.93;;;;;;;25.71;67.10;98603.97;5005218;28;20187;-86
2023/07/21 03:34:55;;;;;;;9.47;4.80;;;;;;;25.76;66.84;98596.16;4995838;28;20701;-87
2023/07/21 03:37:25;;;;;;;9.37;5.40;;;;;;;25.83;66.75;98594.41;4997171;28;20179;-86
2023/07/21 03:39:51;;;;;;;9.20;5.67;;;;;;;25.89;66.50;98593.63;4995730;28;20605;-86
2023/07/21 03:42:16;;;;;;;9.27;5.83;;;;;;;25.95;66.15;98602.78;4996487;28;20199;-86
2023/07/21 03:44:47;;;;;;;8.87;5.20;;;;;;;25.98;66.38;98611.28;4996432;28;20654;-86
2023/07/21 03:47:12;;;;;;;7.90;4.97;;;;;;;25.99;66.34;98606.75;5012372;28;20194;-86
2023/07/21 03:49:38;;;;;;;13.70;5.87;;;;;;;25.99;67.16;98612.13;5015899;28;20187;-86
2023/07/21 03:52:03;;;;;;;13.13;5.57;;;;;;;25.88;67.93;98608.09;5015840;28;20624;-86
2023/07/21 03:54:30;;;;;;;8.93;5.57;;;;;;;25.86;68.20;98620.88;5015927;28;20255;-86
2023/07/21 03:56:55;;;;;;;9.27;5.30;;;;;;;25.89;67.86;98631.22;5016302;28;20202;-86
2023/07/21 03:59:21;;;;;;;10.43;5.80;;;;;;;25.95;68.17;98626.94;5015769;28;20614;-87
2023/07/21 04:01:46;;;;;;;10.68;5.30;;;;;;;26.02;68.32;98625.19;5015577;28;20183;-86
2023/07/21 04:04:12;;;;;;;10.03;5.17;;;;;;;26.03;68.24;98619.63;5015051;28;20253;-86
2023/07/21 04:06:38;;;;;;;11.13;5.67;;;;;;;26.04;68.81;98631.19;5014244;28;20218;-86
2023/07/21 04:09:04;;;;;;;11.48;5.47;;;;;;;26.08;68.38;98638.66;5015468;28;20175;-86
2023/07/21 04:11:29;;;;;;;9.18;5.80;;;;;;;26.16;68.30;98643.94;5015498;28;20695;-86
2023/07/21 04:13:58;;;;;;;10.73;6.03;;;;;;;26.21;68.19;98643.38;5015488;28;20207;-86
2023/07/21 04:16:23;;;;;;;10.30;6.00;;;;;;;26.31;67.84;98638.50;5015668;28;20628;-87
2023/07/21 04:18:49;;;;;;;12.60;6.27;;;;;;;26.40;67.59;98642.75;5015131;28;20250;-86
2023/07/21 04:21:14;;;;;;;10.30;5.57;;;;;;;26.47;67.57;98650.84;5015123;28;20175;-86
2023/07/21 04:23:40;;;;;;;11.37;5.80;;;;;;;26.54;67.89;98641.84;5015355;28;20221;-86
2023/07/21 04:26:07;;;;;;;11.23;5.93;;;;;;;26.64;67.65;98644.19;4997807;28;20187;-87
2023/07/21 04:28:32;;;;;;;12.25;6.00;;;;;;;26.71;67.95;98653.97;4998210;28;20537;-86
2023/07/21 04:30:58;;;;;;;13.50;6.27;;;;;;;26.80;67.45;98643.94;4997806;28;20195;-87
2023/07/21 04:33:23;;;;;;;9.73;6.57;;;;;;;26.84;66.99;98646.03;5014502;28;20628;-86
2023/07/21 04:35:51;;;;;;;13.57;6.10;;;;;;;26.89;66.60;98641.94;5015078;28;20235;-87
2023/07/21 04:38:16;;;;;;;13.73;6.78;;;;;;;26.97;66.64;98647.97;5015364;28;20171;-86
2023/07/21 04:40:44;;;;;;;10.50;6.22;;;;;;;27.05;66.51;98653.22;5015528;28;20186;-86
2023/07/21 04:43:11;;;;;;;12.33;6.93;;;;;;;27.11;66.44;98647.06;5014909;28;20573;-86
2023/07/21 04:45:40;;;;;;;11.35;6.00;;;;;;;27.13;66.18;98644.16;5013721;28;20527;-86
2023/07/21 04:48:06;;;;;;;9.70;5.73;;;;;;;27.24;65.64;98652.50;5014831;28;20636;-86
2023/07/21 04:50:31;;;;;;;11.45;6.78;;;;;;;27.27;65.51;98656.66;5014664;28;20202;-86
2023/07/21 04:52:57;;;;;;;11.45;5.88;;;;;;;27.33;65.24;98654.00;5014784;28;20171;-86
2023/07/21 04:55:22;;;;;;;10.20;6.40;;;;;;;27.38;64.75;98659.63;5014732;28;20651;-86
2023/07/21 04:57:48;;;;;;;10.43;5.75;;;;;;;27.48;64.99;98663.84;5014665;28;20246;-87
2023/07/21 05:00:15;;;;;;;11.10;5.88;;;;;;;27.52;65.13;98659.72;5014370;28;20175;-87
2023/07/21 05:02:40;;;;;;;10.68;5.85;;;;;;;27.65;64.89;98659.78;4997264;28;20179;-86
2023/07/21 05:05:07;;;;;;;9.82;5.55;;;;;;;27.76;64.54;98651.13;5014432;28;20182;-87
2023/07/21 05:07:33;;;;;;;10.98;5.95;;;;;;;27.80;64.06;98669.41;5014456;28;20179;-86
2023/07/21 05:09:58;;;;;;;9.98;5.25;;;;;;;27.96;63.88;98671.72;5014218;28;20203;-87
2023/07/21 05:12:25;;;;;;;9.80;6.13;;;;;;;28.14;63.04;98664.97;5014351;28;20182;-87
2023/07/21 05:14:50;;;;;;;8.57;5.65;;;;;;;28.38;62.22;98667.91;5014261;28;20179;-87
2023/07/21 05:17:17;;;;;;;9.48;5.28;;;;;;;28.64;61.71;98678.75;5014251;28;20539;-87
2023/07/21 05:19:44;;;;;;;9.95;6.45;;;;;;;28.86;61.85;98674.00;5014099;28;20257;-87
2023/07/21 05:22:09;;;;;;;8.18;5.18;;;;;;;29.12;61.63;98676.66;5014409;28;20703;-87
2023/07/21 05:24:35;;;;;;;9.65;4.70;;;;;;;29.27;59.84;98673.78;5014454;28;20179;-87
2023/07/21 05:27:01;;;;;;;6.93;3.47;;;;;;;29.55;55.23;98679.75;5014135;28;20543;-86
2023/07/21 05:29:27;;;;;;;7.70;3.78;;;;;;;29.60;56.23;98684.50;5014283;28;20194;-86
2023/07/21 05:31:52;;;;;;;8.45;3.58;;;;;;;29.94;55.49;98686.06;5014582;28;20184;-87
2023/07/21 05:34:53;;;;;;;7.90;3.58;;;;;;;30.34;53.61;98687.50;5014049;28;20744;-86
2023/07/21 05:37:19;;;;;;;5.10;2.78;;;;;;;30.56;52.09;98690.72;4878572;29;20184;-87
2023/07/21 05:39:44;;;;;;;5.55;2.55;;;;;;;30.68;51.70;98684.41;4954869;28;20251;-87
2023/07/21 05:42:09;;;;;;;5.78;2.28;;;;;;;30.81;49.62;98689.69;4974882;28;20188;-87
2023/07/21 05:44:37;;;;;;;9.20;7.93;;;;;;;30.89;50.49;98702.13;5001833;28;20178;-87
2023/07/21 05:47:03;;;;;;;8.68;3.22;;;;;;;30.79;49.28;98697.19;5014090;28;20172;-86
2023/07/21 05:49:29;;;;;;;8.48;2.80;;;;;;;30.76;50.04;98694.94;5014203;28;20286;-86
2023/07/21 05:51:54;;;;;;;6.55;2.25;;;;;;;30.93;49.70;98696.06;5013738;28;20237;-87
2023/07/21 05:54:19;;;;;;;8.13;1.98;;;;;;;31.12;47.49;98696.13;5014009;28;20164;-86
2023/07/21 05:56:45;;;;;;;7.32;2.55;;;;;;;31.25;48.02;98698.72;5013467;28;20178;-87
2023/07/21 05:59:11;;;;;;;5.47;3.10;;;;;;;31.35;46.39;98707.16;5013471;28;20240;-86
2023/07/21 06:01:37;;;;;;;10.93;2.75;;;;;;;31.25;47.42;98704.13;5013273;28;20175;-86
2023/07/21 06:04:04;;;;;;;22.15;5.03;;;;;;;31.26;48.25;98703.91;5013533;28;20248;-87
2023/07/21 06:06:30;;;;;;;6.03;2.60;;;;;;;31.19;47.79;98711.25;5013618;28;20720;-87
2023/07/21 06:08:56;;;;;;;4.18;2.35;;;;;;;31.25;48.39;98710.38;5013153;28;20171;-86
2023/07/21 06:11:23;;;;;;;5.95;2.58;;;;;;;31.32;46.44;98702.16;4996232;28;20543;-87
2023/07/21 06:13:49;;;;;;;6.40;2.10;;;;;;;31.41;47.41;98712.50;5013417;28;20193;-86
2023/07/21 06:16:14;;;;;;;43.88;7.13;;;;;;;31.41;47.26;98711.69;5013414;28;20637;-86
2023/07/21 06:18:41;;;;;;;9.20;3.05;;;;;;;31.43;45.83;98709.56;5013244;28;20233;-87
2023/07/21 06:21:06;;;;;;;7.38;3.30;;;;;;;31.73;45.70;98712.41;5013372;28;20238;-87
2023/07/21 06:23:32;;;;;;;7.97;2.97;;;;;;;31.89;45.51;98709.91;5013414;28;20676;-87
2023/07/21 06:25:57;;;;;;;5.10;2.20;;;;;;;31.84;44.79;98701.63;5013636;28;20555;-86
2023/07/21 06:28:23;;;;;;;52.75;19.20;;;;;;;31.98;44.71;98703.13;5013573;28;20181;-87
2023/07/21 06:30:48;;;;;;;4.97;2.10;;;;;;;32.15;43.39;98696.03;5013529;28;20201;-87
2023/07/21 06:33:14;;;;;;;7.00;2.60;;;;;;;32.32;43.84;98698.09;4984535;28;20209;-87
2023/07/21 06:35:40;;;;;;;5.80;2.45;;;;;;;32.49;43.93;98699.13;5012337;28;20566;-87
2023/07/21 06:38:07;;;;;;;3.88;1.92;;;;;;;32.60;43.04;98699.16;4995849;28;20179;-87
2023/07/21 06:40:33;;;;;;;5.88;3.10;;;;;;;32.77;42.66;98704.78;5013275;28;20182;-87
2023/07/21 06:42:59;;;;;;;5.57;2.22;;;;;;;32.98;42.15;98703.38;5013499;28;20240;-87
2023/07/21 06:45:25;;;;;;;8.68;2.80;;;;;;;33.13;42.26;98712.75;5013219;28;20571;-87
2023/07/21 06:47:50;;;;;;;4.30;2.47;;;;;;;33.41;43.18;98714.78;5013398;28;20576;-87
2023/07/21 06:50:16;;;;;;;5.82;2.60;;;;;;;33.71;38.17;98698.34;5013316;28;20627;-87
2023/07/21 06:52:41;;;;;;;7.43;2.17;;;;;;;33.87;39.66;98711.19;5011974;28;20266;-87
2023/07/21 06:55:07;;;;;;;6.50;2.50;;;;;;;34.08;40.00;98704.28;4995806;28;20249;-87
2023/07/21 06:57:33;;;;;;;6.43;2.38;;;;;;;34.21;39.42;98712.16;5013624;28;20183;-87
2023/07/21 06:59:58;;;;;;;4.57;2.45;;;;;;;34.43;38.77;98719.44;4996139;28;20266;-87
2023/07/21 07:02:24;;;;;;;7.32;2.95;;;;;;;34.68;38.76;98713.63;5008899;28;20633;-87
2023/07/21 07:04:51;;;;;;;6.10;2.58;;;;;;;34.86;38.66;98718.00;4994007;28;20198;-87
2023/07/21 07:07:17;;;;;;;8.80;2.83;;;;;;;34.83;38.19;98719.34;4993907;28;20503;-88
2023/07/21 07:09:43;;;;;;;3.65;2.00;;;;;;;35.23;37.03;98724.66;4995860;28;20195;-88
2023/07/21 07:12:09;;;;;;;5.90;2.05;;;;;;;35.35;38.41;98724.56;4997069;28;20183;-88
2023/07/21 07:14:34;;;;;;;5.60;1.85;;;;;;;35.32;37.47;98712.28;4996993;28;20206;-88
2023/07/21 07:17:00;;;;;;;5.15;2.60;;;;;;;35.22;37.32;98714.84;4997522;28;20218;-88
2023/07/21 07:19:25;;;;;;;8.82;2.78;;;;;;;34.98;38.19;98716.06;4979971;28;20187;-88
2023/07/21 07:21:51;;;;;;;6.43;2.70;;;;;;;35.59;38.25;98720.56;4997149;28;20235;-88
2023/07/21 07:24:17;;;;;;;6.22;2.17;;;;;;;35.71;37.01;98705.78;5008435;28;20187;-88
2023/07/21 07:26:42;;;;;;;10.40;2.97;;;;;;;36.23;36.39;98697.97;5016394;28;20229;-88
2023/07/21 07:29:07;;;;;;;7.40;2.33;;;;;;;36.62;34.75;98706.88;5016294;28;20600;-88
2023/07/21 07:31:36;;;;;;;12.25;2.40;;;;;;;36.88;34.95;98706.00;5016754;28;20186;-88
2023/07/21 07:34:03;;;;;;;7.10;3.47;;;;;;;37.08;33.08;98705.41;5016260;28;20171;-88
2023/07/21 07:36:29;;;;;;;8.95;2.25;;;;;;;37.06;34.31;98706.72;5015935;28;20198;-89
2023/07/21 07:38:54;;;;;;;9.88;2.50;;;;;;;37.06;33.90;98699.34;5016681;28;20190;-89
2023/07/21 07:41:20;;;;;;;5.22;1.88;;;;;;;37.12;34.59;98702.94;5016115;28;20167;-88
2023/07/21 07:43:45;;;;;;;5.93;2.45;;;;;;;37.12;33.52;98702.94;5004281;28;20270;-88
2023/07/21 07:46:11;;;;;;;7.72;2.80;;;;;;;37.58;33.95;98704.91;5015981;28;20167;-88
2023/07/21 07:48:37;;;;;;;5.47;1.90;;;;;;;37.30;34.69;98714.28;4998762;28;20285;-87
2023/07/21 07:51:04;;;;;;;6.57;2.40;;;;;;;36.98;33.59;98727.16;5015824;28;20210;-88
2023/07/21 07:53:35;;;;;;;5.75;1.92;;;;;;;37.49;31.63;98711.97;5015825;28;20257;-87
2023/07/21 07:56:01;;;;;;;3.90;2.28;;;;;;;37.45;31.92;98716.31;5015964;28;20167;-88
2023/07/21 07:58:27;;;;;;;5.22;1.95;;;;;;;37.18;32.09;98710.94;5008315;28;20534;-88
2023/07/21 08:00:56;;;;;;;4.82;2.00;;;;;;;36.85;32.51;98717.47;4996536;28;20175;-88
2023/07/21 08:03:22;;;;;;;3.67;1.85;;;;;;;36.99;31.06;98725.25;5004980;28;20171;-89
2023/07/21 08:05:48;;;;;;;3.90;2.15;;;;;;;37.14;32.19;98711.69;5015642;28;20264;-88
2023/07/21 08:08:13;;;;;;;5.85;2.35;;;;;;;37.30;31.87;98724.41;5015629;28;20181;-89
2023/07/21 08:10:40;;;;;;;6.72;2.30;;;;;;;37.07;32.33;98719.31;5014996;28;20274;-88
2023/07/21 08:13:06;;;;;;;4.30;2.03;;;;;;;36.24;33.20;98729.63;5015635;28;20585;-87
2023/07/21 08:15:31;;;;;;;5.28;2.67;;;;;;;36.30;32.75;98723.16;5015437;28;20182;-88
2023/07/21 08:17:57;;;;;;;6.68;2.65;;;;;;;36.97;33.67;98720.06;5015357;28;20262;-88
2023/07/21 08:20:24;;;;;;;3.72;2.10;;;;;;;36.96;32.37;98726.59;5015102;28;20645;-88
2023/07/21 08:22:52;;;;;;;4.72;2.33;;;;;;;36.76;32.46;98723.66;5015172;28;20179;-87
2023/07/21 08:25:19;;;;;;;6.65;2.50;;;;;;;36.97;33.13;98722.78;5015493;28;20186;-88
2023/07/21 08:27:45;;;;;;;6.65;2.40;;;;;;;36.98;31.70;98731.81;5015576;28;20178;-89
2023/07/21 08:30:11;;;;;;;7.30;3.25;;;;;;;37.57;32.16;98727.06;5015103;28;20199;-89
2023/07/21 08:32:38;;;;;;;4.82;2.42;;;;;;;37.60;32.63;98719.16;5015123;28;20266;-88
2023/07/21 08:35:05;;;;;;;6.05;2.63;;;;;;;38.00;32.22;98718.59;5014107;28;20206;-88
2023/07/21 08:37:31;;;;;;;5.22;2.72;;;;;;;37.64;31.82;98717.53;5015027;28;20183;-88
2023/07/21 08:39:57;;;;;;;5.65;2.63;;;;;;;37.13;32.25;98726.47;5014974;28;20494;-88
2023/07/21 08:42:25;;;;;;;5.90;2.30;;;;;;;37.44;33.01;98714.69;5015221;28;20175;-89
2023/07/21 08:45:04;;;;;;;5.13;2.00;;;;;;;37.39;30.43;98731.03;5001760;28;20184;-88
2023/07/21 08:47:32;;;;;;;4.63;2.40;;;;;;;37.16;33.42;98723.22;4995492;28;20175;-88
2023/07/21 08:50:00;;;;;;;6.10;2.45;;;;;;;37.03;32.62;98721.72;4995012;28;20192;-88
2023/07/21 08:52:27;;;;;;;5.15;2.60;;;;;;;37.38;33.01;98732.09;4961700;28;20310;-88
2023/07/21 08:54:54;;;;;;;4.65;2.50;;;;;;;37.69;32.83;98731.25;4994435;28;20176;-88
2023/07/21 08:57:22;;;;;;;6.13;2.60;;;;;;;38.25;32.62;98720.56;4995343;28;20172;-88
2023/07/21 09:00:10;;;;;;;6.65;2.85;;;;;;;38.41;31.17;98719.53;4994944;28;20198;-89
2023/07/21 09:02:46;;;;;;;4.53;2.45;;;;;;;37.33;30.95;98726.59;5011336;28;20182;-89
2023/07/21 09:05:17;;;;;;;4.53;2.40;;;;;;;37.25;31.95;98729.81;5013469;28;20175;-88
2023/07/21 09:07:46;;;;;;;5.85;2.33;;;;;;;37.97;32.57;98719.09;5014613;28;20190;-88
2023/07/21 09:10:26;;;;;;;5.88;2.67;;;;;;;38.40;30.42;98715.97;5012500;28;20226;-87
2023/07/21 09:12:53;;;;;;;5.95;2.63;;;;;;;38.26;30.44;98722.22;4997615;28;20171;-88
2023/07/21 09:15:20;;;;;;;6.18;2.95;;;;;;;38.54;29.80;98724.50;5014275;28;20175;-88
2023/07/21 09:17:46;;;;;;;5.82;2.67;;;;;;;38.24;29.94;98729.84;5013854;28;20183;-87
2023/07/21 09:20:33;;;;;;;4.03;2.47;;;;;;;37.84;30.53;98728.56;5013148;28;20570;-87
2023/07/21 09:22:59;;;;;;;3.70;2.42;;;;;;;37.52;30.56;98738.81;5012058;28;20187;-87
2023/07/21 09:25:26;;;;;;;5.15;2.20;;;;;;;37.72;30.96;98733.44;5006137;28;20676;-87
2023/07/21 09:27:57;;;;;;;7.82;2.45;;;;;;;38.07;30.96;98725.44;5013469;28;20179;-88
2023/07/21 09:30:25;;;;;;;4.53;2.33;;;;;;;38.14;29.89;98726.00;5012335;28;20207;-88
2023/07/21 09:33:01;;;;;;;6.47;2.97;;;;;;;38.36;29.35;98717.63;4994848;28;20625;-88
2023/07/21 09:35:29;;;;;;;5.35;2.63;;;;;;;38.61;29.07;98720.41;5005277;28;20182;-88
2023/07/21 09:37:58;;;;;;;4.70;2.78;;;;;;;38.91;28.68;98714.16;5012834;28;20240;-88
2023/07/21 09:40:30;;;;;;;4.82;2.47;;;;;;;39.51;28.63;98717.97;5012669;28;20183;-88
2023/07/21 09:42:57;;;;;;;5.20;2.25;;;;;;;39.09;28.89;98715.53;4964558;28;20218;-88
2023/07/21 09:45:25;;;;;;;5.15;2.42;;;;;;;38.51;28.71;98703.97;4994327;28;20245;-87
2023/07/21 09:47:55;;;;;;;6.28;3.15;;;;;;;38.70;29.73;98715.22;4994207;28;20605;-88
2023/07/21 09:50:22;;;;;;;3.08;1.80;;;;;;;39.18;29.07;98703.75;4976739;28;20207;-88
2023/07/21 09:52:50;;;;;;;3.45;2.13;;;;;;;37.98;28.99;98704.31;4993651;28;20183;-87
2023/07/21 09:55:17;;;;;;;5.38;3.00;;;;;;;38.32;29.71;98700.06;4993935;28;20172;-87
2023/07/21 09:57:52;;;;;;;5.35;2.75;;;;;;;38.46;29.27;98703.13;4993903;28;20183;-87
2023/07/21 10:00:20;;;;;;;5.55;2.60;;;;;;;38.34;29.08;98691.59;4993793;28;20306;-87
2023/07/21 10:02:49;;;;;;;4.72;2.25;;;;;;;38.88;28.07;98702.91;4999229;28;20236;-87
2023/07/21 10:05:16;;;;;;;9.90;2.33;;;;;;;39.04;26.96;98696.34;4992608;28;20187;-87
2023/07/21 10:07:50;;;;;;;3.50;2.10;;;;;;;38.60;29.32;98701.50;4981870;28;20195;-89
2023/07/21 10:10:19;;;;;;;4.05;2.00;;;;;;;38.85;27.76;98695.25;4983557;28;20208;-89
2023/07/21 10:12:50;;;;;;;3.30;2.03;;;;;;;39.19;27.94;98694.44;4982742;28;20684;-88
2023/07/21 10:15:19;;;;;;;4.50;1.83;;;;;;;39.67;28.56;98692.16;4983375;28;20195;-89
2023/07/21 10:18:07;;;;;;;6.03;2.58;;;;;;;40.23;26.24;98699.06;4979571;28;20266;-89
2023/07/21 10:20:53;;;;;;;4.57;2.03;;;;;;;39.61;25.84;98698.72;4981329;28;20701;-88
2023/07/21 10:23:38;;;;;;;3.65;2.15;;;;;;;39.74;26.20;98696.25;4980543;28;20258;-88
2023/07/21 10:26:05;;;;;;;5.00;1.65;;;;;;;40.08;26.65;98692.84;4960843;28;20187;-88
2023/07/21 10:28:34;;;;;;;4.18;2.25;;;;;;;40.09;26.18;98684.34;4976795;28;20279;-88
2023/07/21 10:31:24;;;;;;;5.30;2.20;;;;;;;40.30;26.46;98677.63;4984068;28;20200;-88
2023/07/21 10:34:06;;;;;;;3.78;2.10;;;;;;;40.33;26.14;98679.78;4981883;28;20210;-87
2023/07/21 10:36:45;;;;;;;5.15;2.35;;;;;;;40.44;27.54;98675.88;4977598;28;20231;-88
2023/07/21 10:39:19;;;;;;;6.22;1.80;;;;;;;39.24;27.62;98686.19;4977681;28;20215;-86
2023/07/21 10:41:45;;;;;;;3.25;1.80;;;;;;;39.17;27.85;98693.03;4982117;28;20662;-87
2023/07/21 10:44:11;;;;;;;3.58;1.70;;;;;;;38.97;27.43;98691.13;4978071;28;20262;-87
2023/07/21 10:46:41;;;;;;;4.20;1.70;;;;;;;39.72;27.81;98681.16;4986282;28;20188;-87
2023/07/21 10:49:11;;;;;;;5.82;2.33;;;;;;;39.97;27.36;98670.06;4982118;28;20409;-87
2023/07/21 10:51:43;;;;;;;4.40;2.13;;;;;;;39.50;26.68;98678.72;4994402;28;20195;-88
2023/07/21 10:54:10;;;;;;;6.88;2.03;;;;;;;39.91;26.61;98663.78;4980117;28;20184;-88
2023/07/21 10:56:45;;;;;;;4.07;1.90;;;;;;;39.57;25.26;98668.28;4982451;28;20223;-87
2023/07/21 10:59:14;;;;;;;3.22;1.80;;;;;;;39.60;27.28;98667.72;4987759;28;20572;-88
2023/07/21 11:01:44;;;;;;;4.63;1.85;;;;;;;39.64;25.61;98668.03;4983847;28;20185;-87
2023/07/21 11:04:13;;;;;;;3.47;1.67;;;;;;;39.46;25.30;98665.84;4982435;28;20259;-88
2023/07/21 11:06:57;;;;;;;5.80;2.05;;;;;;;39.64;26.66;98657.06;4967564;28;20192;-88
2023/07/21 11:09:25;;;;;;;5.85;2.25;;;;;;;40.47;24.86;98647.03;4983925;28;20202;-87
2023/07/21 11:11:54;;;;;;;9.05;2.60;;;;;;;41.01;24.26;98649.66;5012359;28;20249;-88
2023/07/21 11:14:23;;;;;;;3.92;1.67;;;;;;;40.90;24.98;98642.59;5016373;28;20194;-88
2023/07/21 11:17:02;;;;;;;3.47;1.80;;;;;;;40.94;26.21;98638.97;5016172;28;20609;-87
2023/07/21 11:19:29;;;;;;;4.55;1.98;;;;;;;40.72;25.17;98643.28;5016340;28;20210;-88
2023/07/21 11:21:55;;;;;;;3.63;2.00;;;;;;;40.92;26.51;98637.63;5016240;28;20187;-88
2023/07/21 11:24:26;;;;;;;4.35;2.00;;;;;;;41.21;26.27;98634.84;5016448;28;20593;-88
2023/07/21 11:26:58;;;;;;;4.10;2.25;;;;;;;41.35;25.31;98628.41;5015762;28;20555;-88
2023/07/21 11:29:26;;;;;;;5.78;2.17;;;;;;;41.60;25.89;98622.59;5016299;28;20205;-88
2023/07/21 11:31:52;;;;;;;5.70;1.73;;;;;;;41.54;25.74;98623.75;5012785;28;20188;-87